Time;durP1;ratioP1;P1;durP2;ratioP2;P2;SDS_P1;SDS_P2;PMS_P1;PMS_P2;Temp;Humidity;BMP_temperature;BMP_pressure;BME280_temperature;BME280_humidity;BME280_pressure;Samples;Min_cycle;Max_cycle;Signal;HPM_P1;HPM_P2
2023/04/02 00:00:11;;;;;;;12.27;5.75;;;;;;;;;;4983843;28;20046;-87
2023/04/02 00:02:48;;;;;;;10.70;5.97;;;;;;;;;;4984341;28;20057;-86
2023/04/02 00:05:18;;;;;;;12.18;6.03;;;;;;;;;;4991357;28;20046;-87
2023/04/02 00:07:59;;;;;;;9.20;5.57;;;;;;;;;;4988281;28;20062;-88
2023/04/02 00:10:27;;;;;;;11.25;5.78;;;;;;;;;;5014059;28;20057;-88
2023/04/02 00:13:04;;;;;;;11.57;5.72;;;;;;;;;;5013686;28;20042;-87
2023/04/02 00:15:30;;;;;;;9.77;6.03;;;;;;;;;;5006467;28;20416;-87
2023/04/02 00:17:57;;;;;;;10.98;6.45;;;;;;;;;;5016169;28;20079;-86
2023/04/02 00:20:23;;;;;;;8.88;6.15;;;;;;;;;;5014031;28;20042;-88
2023/04/02 00:22:50;;;;;;;13.80;7.22;;;;;;;;;;5000602;28;20042;-87
2023/04/02 00:25:16;;;;;;;10.82;5.78;;;;;;;;;;5016781;28;20050;-87
2023/04/02 00:27:45;;;;;;;14.15;6.43;;;;;;;;;;5000471;28;20050;-87
2023/04/02 00:30:19;;;;;;;9.30;5.75;;;;;;;;;;5017512;28;20038;-86
2023/04/02 00:32:48;;;;;;;11.43;6.25;;;;;;;;;;5000517;28;20065;-87
2023/04/02 00:35:20;;;;;;;10.77;4.97;;;;;;;;;;4997418;28;20262;-86
2023/04/02 00:37:46;;;;;;;12.45;5.35;;;;;;;;;;5015034;28;20050;-86
2023/04/02 00:40:19;;;;;;;8.40;4.60;;;;;;;;;;4997167;28;20162;-86
2023/04/02 00:42:49;;;;;;;9.95;4.75;;;;;;;;;;4996854;28;20097;-86
2023/04/02 00:45:24;;;;;;;10.85;4.13;;;;;;;;;;5004084;28;20046;-88
2023/04/02 00:47:53;;;;;;;9.90;4.50;;;;;;;;;;5014744;28;20039;-88
2023/04/02 00:50:39;;;;;;;8.35;4.03;;;;;;;;;;5004692;28;20046;-88
2023/04/02 00:53:20;;;;;;;10.55;4.78;;;;;;;;;;5016395;28;20055;-87
2023/04/02 00:55:49;;;;;;;8.63;4.85;;;;;;;;;;4987155;28;20050;-87
2023/04/02 00:58:25;;;;;;;10.93;4.60;;;;;;;;;;4999260;28;20142;-87
2023/04/02 01:00:52;;;;;;;8.40;4.22;;;;;;;;;;4984554;28;20050;-87
2023/04/02 01:03:18;;;;;;;9.48;3.92;;;;;;;;;;5000814;28;20101;-87
2023/04/02 01:05:52;;;;;;;10.82;4.75;;;;;;;;;;4986819;28;20507;-87
2023/04/02 01:08:25;;;;;;;7.97;4.43;;;;;;;;;;4996324;28;20060;-86
2023/04/02 01:10:52;;;;;;;9.30;4.28;;;;;;;;;;5001067;28;20053;-86
2023/04/02 01:13:27;;;;;;;9.82;4.97;;;;;;;;;;5006459;28;20045;-88
2023/04/02 01:16:05;;;;;;;9.00;4.90;;;;;;;;;;5011429;28;20169;-87
2023/04/02 01:18:40;;;;;;;8.50;4.68;;;;;;;;;;5002573;28;20047;-88
2023/04/02 01:21:10;;;;;;;9.60;4.45;;;;;;;;;;4980512;28;20047;-87
2023/04/02 01:23:51;;;;;;;15.38;4.53;;;;;;;;;;4979124;28;20050;-88
2023/04/02 01:26:26;;;;;;;8.48;4.07;;;;;;;;;;4995242;28;20425;-87
2023/04/02 01:29:08;;;;;;;9.05;4.95;;;;;;;;;;4996754;28;20051;-87
2023/04/02 01:31:44;;;;;;;14.82;5.18;;;;;;;;;;4997114;28;20137;-87
2023/04/02 01:34:16;;;;;;;8.65;4.35;;;;;;;;;;4994220;28;20052;-88
2023/04/02 01:37:09;;;;;;;8.75;4.43;;;;;;;;;;4995479;28;20050;-87
2023/04/02 01:39:45;;;;;;;10.52;3.90;;;;;;;;;;4979196;28;20066;-87
2023/04/02 01:42:16;;;;;;;11.25;4.55;;;;;;;;;;4978722;28;20051;-87
2023/04/02 01:44:53;;;;;;;10.95;4.65;;;;;;;;;;4981448;28;20050;-87
2023/04/02 01:47:24;;;;;;;10.60;4.35;;;;;;;;;;4980291;28;20050;-88
2023/04/02 01:49:57;;;;;;;9.38;4.18;;;;;;;;;;4996168;28;20102;-87
2023/04/02 01:52:39;;;;;;;12.88;4.43;;;;;;;;;;4979654;28;20050;-86
2023/04/02 01:55:07;;;;;;;8.50;4.07;;;;;;;;;;4979244;28;20121;-86
2023/04/02 01:57:34;;;;;;;11.60;4.63;;;;;;;;;;4993382;28;20042;-86
2023/04/02 02:00:08;;;;;;;10.82;4.13;;;;;;;;;;4993382;28;20113;-86
2023/04/02 02:02:35;;;;;;;8.57;3.95;;;;;;;;;;4981507;28;20041;-87
2023/04/02 02:05:01;;;;;;;9.13;4.00;;;;;;;;;;4992805;28;20133;-86
2023/04/02 02:07:57;;;;;;;10.60;4.47;;;;;;;;;;4990407;28;20054;-87
2023/04/02 02:10:26;;;;;;;7.85;4.05;;;;;;;;;;4987732;28;20155;-87
2023/04/02 02:12:54;;;;;;;10.45;4.35;;;;;;;;;;4992186;28;20088;-87
2023/04/02 02:15:25;;;;;;;8.68;3.47;;;;;;;;;;4987674;28;20046;-87
2023/04/02 02:18:09;;;;;;;10.95;4.22;;;;;;;;;;4988309;28;20053;-86
2023/04/02 02:20:35;;;;;;;6.57;3.00;;;;;;;;;;5005156;28;20052;-86
2023/04/02 02:23:03;;;;;;;10.85;4.07;;;;;;;;;;5003385;28;20069;-86
2023/04/02 02:25:51;;;;;;;11.20;3.80;;;;;;;;;;5005632;28;20072;-86
2023/04/02 02:28:20;;;;;;;9.32;4.40;;;;;;;;;;4984892;28;20042;-87
2023/04/02 02:31:05;;;;;;;10.45;3.45;;;;;;;;;;4981859;28;20481;-87
2023/04/02 02:33:51;;;;;;;8.40;3.30;;;;;;;;;;4996779;28;20050;-87
2023/04/02 02:37:00;;;;;;;10.20;4.22;;;;;;;;;;5014011;28;20077;-87
2023/04/02 02:39:45;;;;;;;9.88;3.72;;;;;;;;;;4990264;28;20088;-87
2023/04/02 02:42:48;;;;;;;9.45;3.58;;;;;;;;;;4988127;28;20057;-87
2023/04/02 02:45:25;;;;;;;7.15;3.33;;;;;;;;;;5000298;28;20076;-87
2023/04/02 02:47:58;;;;;;;10.73;3.40;;;;;;;;;;4980732;28;20101;-86
2023/04/02 02:50:51;;;;;;;8.27;3.70;;;;;;;;;;4977920;28;20039;-86
2023/04/02 02:53:45;;;;;;;11.63;3.70;;;;;;;;;;4974208;28;20078;-85
2023/04/02 02:56:25;;;;;;;8.40;3.47;;;;;;;;;;4990645;28;20064;-87
2023/04/02 03:02:01;;;;;;;9.43;3.55;;;;;;;;;;5007731;28;20042;-87
2023/04/02 03:04:36;;;;;;;10.65;3.08;;;;;;;;;;4986957;28;20158;-86
2023/04/02 03:07:18;;;;;;;10.23;3.78;;;;;;;;;;4978949;28;20057;-87
2023/04/02 03:10:12;;;;;;;6.93;3.10;;;;;;;;;;4968957;28;20053;-87
2023/04/02 03:13:03;;;;;;;10.95;3.90;;;;;;;;;;4970165;28;20061;-86
2023/04/02 03:19:01;;;;;;;9.10;3.15;;;;;;;;;;4979969;28;20069;-87
2023/04/02 03:21:54;;;;;;;9.25;3.13;;;;;;;;;;4980822;28;20061;-87
2023/04/02 03:24:45;;;;;;;10.70;3.22;;;;;;;;;;4969564;28;20054;-87
2023/04/02 03:28:10;;;;;;;10.63;3.47;;;;;;;;;;4989057;28;20049;-88
2023/04/02 03:30:42;;;;;;;7.32;3.03;;;;;;;;;;4898392;29;20060;-86
2023/04/02 03:33:17;;;;;;;10.93;2.88;;;;;;;;;;4922584;28;20134;-87
2023/04/02 03:36:05;;;;;;;7.88;2.60;;;;;;;;;;4923693;29;20462;-86
2023/04/02 03:39:03;;;;;;;9.65;2.60;;;;;;;;;;4902630;29;20090;-87
2023/04/02 03:41:44;;;;;;;8.70;2.85;;;;;;;;;;4928095;28;20024;-87
2023/04/02 03:48:04;;;;;;;10.80;2.75;;;;;;;;;;4881903;29;20065;-85
2023/04/02 03:53:26;;;;;;;6.25;2.42;;;;;;;;;;4874068;29;20667;-88
2023/04/02 03:55:55;;;;;;;7.80;2.33;;;;;;;;;;4862349;29;20121;-87
2023/04/02 03:59:00;;;;;;;11.60;3.28;;;;;;;;;;4866757;29;20056;-87
2023/04/02 04:01:42;;;;;;;8.23;2.50;;;;;;;;;;4880713;29;20057;-88
2023/04/02 04:04:21;;;;;;;9.93;2.78;;;;;;;;;;4899537;29;20686;-87
2023/04/02 04:07:06;;;;;;;8.85;2.63;;;;;;;;;;4895801;29;20148;-88
2023/04/02 04:10:20;;;;;;;;;;;;;;;;;;;;;
2023/04/02 04:16:48;;;;;;;;;;;;;;;;;;;;;
2023/04/02 04:19:40;;;;;;;7.28;2.58;;;;;;;;;;4895847;29;20056;-87
2023/04/02 04:22:30;;;;;;;7.65;1.88;;;;;;;;;;4910707;29;20059;-87
2023/04/02 04:24:57;;;;;;;8.65;2.22;;;;;;;;;;4982026;28;20084;-87
2023/04/02 04:27:45;;;;;;;10.90;2.55;;;;;;;;;;4981492;28;20114;-86
2023/04/02 04:30:40;;;;;;;9.45;2.58;;;;;;;;;;4995985;28;20054;-86
2023/04/02 04:33:49;;;;;;;6.13;1.98;;;;;;;;;;4995705;28;20393;-86
2023/04/02 04:40:06;;;;;;;;;;;;;;;;;;;;;
2023/04/02 04:43:30;;;;;;;5.95;1.75;;;;;;;;;;4937532;29;20044;-86
2023/04/02 04:46:03;;;;;;;13.32;2.50;;;;;;;;;;4921759;29;20040;-87
2023/04/02 04:49:16;;;;;;;9.70;2.05;;;;;;;;;;4856743;29;20069;-87
2023/04/02 04:52:22;;;;;;;10.10;2.33;;;;;;;;;;4828137;29;20092;-85
2023/04/02 04:55:42;;;;;;;;;;;;;;;;;;;;;
2023/04/02 05:02:01;;;;;;;;;;;;;;;;;;;;;
2023/04/02 05:05:00;;;;;;;10.05;2.03;;;;;;;;;;4757455;30;20055;-87
2023/04/02 05:07:26;;;;;;;8.45;2.20;;;;;;;;;;4727652;30;20078;-87
2023/04/02 05:13:20;;;;;;;6.40;1.98;;;;;;;;;;4759935;30;20032;-86
2023/04/02 05:16:34;;;;;;;8.75;1.92;;;;;;;;;;4765234;30;20060;-86
2023/04/02 05:19:09;;;;;;;6.93;1.70;;;;;;;;;;4774039;29;20035;-86
2023/04/02 05:22:20;;;;;;;6.38;1.70;;;;;;;;;;4787735;29;20067;-86
2023/04/02 05:28:17;;;;;;;6.43;1.70;;;;;;;;;;4770793;29;20059;-87
2023/04/02 05:34:03;;;;;;;8.85;1.95;;;;;;;;;;4838261;29;20048;-87
2023/04/02 05:36:55;;;;;;;;;;;;;;;;;;;;;
2023/04/02 05:39:36;;;;;;;11.05;2.58;;;;;;;;;;4933011;28;20051;-87
2023/04/02 05:45:21;;;;;;;5.53;2.08;;;;;;;;;;5002915;28;20054;-86
2023/04/02 05:48:18;;;;;;;8.73;1.95;;;;;;;;;;4968322;28;20054;-86
2023/04/02 05:54:33;;;;;;;8.00;2.20;;;;;;;;;;4966405;28;20070;-86
2023/04/02 05:58:06;;;;;;;;;;;;;;;;;;;;;
2023/04/02 06:04:43;;;;;;;8.00;1.70;;;;;;;;;;4865426;29;20396;-86
2023/04/02 06:07:15;;;;;;;9.45;2.20;;;;;;;;;;4846807;29;20041;-86
2023/04/02 06:10:32;;;;;;;8.88;1.98;;;;;;;;;;4896098;29;20052;-89
2023/04/02 06:13:02;;;;;;;8.32;1.70;;;;;;;;;;4860043;29;20049;-89
2023/04/02 06:15:40;;;;;;;7.25;1.80;;;;;;;;;;4886920;29;20053;-86
2023/04/02 06:18:08;;;;;;;8.80;1.60;;;;;;;;;;4867044;29;20164;-86
2023/04/02 06:20:38;;;;;;;8.00;1.80;;;;;;;;;;4869324;29;20073;-86
2023/04/02 06:23:07;;;;;;;7.32;1.63;;;;;;;;;;4870168;29;20049;-85
2023/04/02 06:25:39;;;;;;;7.07;1.58;;;;;;;;;;4860671;29;20041;-87
2023/04/02 06:28:18;;;;;;;7.05;1.63;;;;;;;;;;4872516;29;20140;-86
2023/04/02 06:30:51;;;;;;;6.03;1.80;;;;;;;;;;4907211;29;20056;-86
2023/04/02 06:33:20;;;;;;;7.68;1.70;;;;;;;;;;4923788;29;20066;-85
2023/04/02 06:35:50;;;;;;;6.88;1.50;;;;;;;;;;4923003;29;20086;-84
2023/04/02 06:38:24;;;;;;;9.57;1.50;;;;;;;;;;4923803;29;20083;-86
2023/04/02 06:40:52;;;;;;;7.05;1.95;;;;;;;;;;4949769;28;20050;-86
2023/04/02 06:43:35;;;;;;;8.00;2.20;;;;;;;;;;4974319;28;20045;-86
2023/04/02 06:46:18;;;;;;;7.97;2.20;;;;;;;;;;4980602;28;20397;-85
2023/04/02 06:48:45;;;;;;;8.27;2.30;;;;;;;;;;4995434;28;20045;-86
2023/04/02 06:51:16;;;;;;;7.60;1.50;;;;;;;;;;4999041;28;20054;-85
2023/04/02 06:54:05;;;;;;;8.55;1.70;;;;;;;;;;4982460;28;20034;-87
2023/04/02 06:56:46;;;;;;;7.35;1.60;;;;;;;;;;4972874;28;20124;-85
2023/04/02 06:59:15;;;;;;;9.20;1.70;;;;;;;;;;5002954;28;20153;-85
2023/04/02 07:01:50;;;;;;;9.48;1.50;;;;;;;;;;5003578;28;20046;-86
2023/04/02 07:04:20;;;;;;;8.68;1.70;;;;;;;;;;5001424;28;20045;-86
2023/04/02 07:06:46;;;;;;;6.88;1.48;;;;;;;;;;5009083;28;20129;-86
2023/04/02 07:09:12;;;;;;;6.85;1.52;;;;;;;;;;4989853;28;20058;-86
2023/04/02 07:11:39;;;;;;;7.93;1.83;;;;;;;;;;5005209;28;20054;-86
2023/04/02 07:14:05;;;;;;;8.13;1.95;;;;;;;;;;4989923;28;20157;-88
2023/04/02 07:16:35;;;;;;;8.20;1.83;;;;;;;;;;4991669;28;20066;-85
2023/04/02 07:19:03;;;;;;;5.70;1.73;;;;;;;;;;5001949;28;20077;-86
2023/04/02 07:21:29;;;;;;;10.40;1.60;;;;;;;;;;4992925;28;20058;-86
2023/04/02 07:23:56;;;;;;;9.10;1.70;;;;;;;;;;4976038;28;20038;-85
2023/04/02 07:26:29;;;;;;;7.88;1.77;;;;;;;;;;4990397;28;20038;-86
2023/04/02 07:28:56;;;;;;;7.00;1.20;;;;;;;;;;5009571;28;20058;-85
2023/04/02 07:31:24;;;;;;;8.65;1.48;;;;;;;;;;4999083;28;20042;-86
2023/04/02 07:33:57;;;;;;;6.43;1.35;;;;;;;;;;4978932;28;20390;-86
2023/04/02 07:36:34;;;;;;;8.52;1.80;;;;;;;;;;4999153;28;20041;-86
2023/04/02 07:39:01;;;;;;;8.45;1.60;;;;;;;;;;4988646;28;20042;-88
2023/04/02 07:41:56;;;;;;;7.05;1.70;;;;;;;;;;4990145;28;20172;-86
2023/04/02 07:44:22;;;;;;;6.90;1.50;;;;;;;;;;5015667;28;20054;-86
2023/04/02 07:46:54;;;;;;;6.07;1.60;;;;;;;;;;5023700;28;20042;-86
2023/04/02 07:49:21;;;;;;;10.50;1.50;;;;;;;;;;5003519;28;20044;-86
2023/04/02 07:51:57;;;;;;;6.40;1.60;;;;;;;;;;5002218;28;20038;-85
2023/04/02 07:54:30;;;;;;;8.27;1.80;;;;;;;;;;4971131;28;20101;-87
2023/04/02 07:56:59;;;;;;;5.03;1.40;;;;;;;;;;4970286;28;20082;-87
2023/04/02 07:59:25;;;;;;;8.88;1.70;;;;;;;;;;5005672;28;20046;-87
2023/04/02 08:01:54;;;;;;;9.13;1.80;;;;;;;;;;4988085;28;20045;-86
2023/04/02 08:04:24;;;;;;;6.22;1.73;;;;;;;;;;5002762;28;20515;-87
2023/04/02 08:06:51;;;;;;;7.28;2.03;;;;;;;;;;5008435;28;20044;-86
2023/04/02 08:09:29;;;;;;;7.05;1.80;;;;;;;;;;4987409;28;20114;-87
2023/04/02 08:11:56;;;;;;;7.85;1.85;;;;;;;;;;5008416;28;20053;-86
2023/04/02 08:14:22;;;;;;;9.43;1.95;;;;;;;;;;4984854;28;20043;-87
2023/04/02 08:16:56;;;;;;;6.45;2.10;;;;;;;;;;4997656;28;20042;-86
2023/04/02 08:19:25;;;;;;;5.43;1.50;;;;;;;;;;5003096;28;20053;-87
2023/04/02 08:21:52;;;;;;;10.35;2.50;;;;;;;;;;4987328;28;20074;-86
2023/04/02 08:24:19;;;;;;;5.10;1.92;;;;;;;;;;5006090;28;20104;-86
2023/04/02 08:26:46;;;;;;;7.68;1.98;;;;;;;;;;5007978;28;20081;-86
2023/04/02 08:29:12;;;;;;;6.63;2.50;;;;;;;;;;4984591;28;20077;-86
2023/04/02 08:31:38;;;;;;;6.93;1.80;;;;;;;;;;4994965;28;20059;-86
2023/04/02 08:34:16;;;;;;;6.15;1.80;;;;;;;;;;5007585;28;20531;-86
2023/04/02 08:36:43;;;;;;;9.52;2.25;;;;;;;;;;5003341;28;20042;-86
2023/04/02 08:39:10;;;;;;;6.50;1.85;;;;;;;;;;4975505;28;20046;-86
2023/04/02 08:41:57;;;;;;;8.45;2.03;;;;;;;;;;5009847;28;20038;-86
2023/04/02 08:44:42;;;;;;;10.75;2.17;;;;;;;;;;5007580;28;20073;-86
2023/04/02 08:47:09;;;;;;;7.38;1.67;;;;;;;;;;4980603;28;20092;-87
2023/04/02 08:49:38;;;;;;;5.90;1.65;;;;;;;;;;4982444;28;20538;-87
2023/04/02 08:52:04;;;;;;;6.97;1.88;;;;;;;;;;4983077;28;20054;-87
2023/04/02 08:54:32;;;;;;;6.75;1.55;;;;;;;;;;4995837;28;20535;-86
2023/04/02 08:57:21;;;;;;;7.15;1.83;;;;;;;;;;4980893;28;20411;-86
2023/04/02 08:59:49;;;;;;;7.60;1.83;;;;;;;;;;4985449;28;20448;-86
2023/04/02 09:02:16;;;;;;;7.75;2.58;;;;;;;;;;4985469;28;20076;-86
2023/04/02 09:04:42;;;;;;;7.03;1.52;;;;;;;;;;5003298;28;20110;-86
2023/04/02 09:07:14;;;;;;;7.65;1.77;;;;;;;;;;5001995;28;20157;-86
2023/04/02 09:09:41;;;;;;;7.80;2.05;;;;;;;;;;5000876;28;20117;-87
2023/04/02 09:12:19;;;;;;;4.57;1.42;;;;;;;;;;4998835;28;20050;-88
2023/04/02 09:15:02;;;;;;;;;;;;;;;;;;;;;
2023/04/02 09:17:36;;;;;;;5.72;1.02;;;;;;;;;;4996491;28;20038;-87
2023/04/02 09:20:16;;;;;;;7.68;1.85;;;;;;;;;;4972326;28;20378;-87
2023/04/02 09:22:44;;;;;;;6.45;1.90;;;;;;;;;;4980820;28;20047;-88
2023/04/02 09:25:20;;;;;;;7.80;2.00;;;;;;;;;;5004896;28;20046;-87
2023/04/02 09:27:49;;;;;;;7.03;2.03;;;;;;;;;;4997058;28;20133;-87
2023/04/02 09:30:28;;;;;;;7.38;2.05;;;;;;;;;;4980325;28;20054;-88
2023/04/02 09:33:05;;;;;;;7.82;2.50;;;;;;;;;;4995073;28;20038;-89
2023/04/02 09:35:34;;;;;;;8.45;1.52;;;;;;;;;;4996579;28;20077;-87
2023/04/02 09:38:12;;;;;;;8.32;1.95;;;;;;;;;;4995910;28;20521;-88
2023/04/02 09:40:57;;;;;;;8.95;2.65;;;;;;;;;;4977452;28;20054;-87
2023/04/02 09:43:29;;;;;;;6.68;1.58;;;;;;;;;;4997780;28;20041;-86
2023/04/02 09:45:57;;;;;;;6.80;1.60;;;;;;;;;;5003178;28;20103;-87
2023/04/02 09:48:34;;;;;;;7.03;1.50;;;;;;;;;;5003675;28;20042;-87
2023/04/02 09:51:09;;;;;;;7.85;1.80;;;;;;;;;;4979286;28;20038;-86
2023/04/02 09:53:36;;;;;;;5.90;1.50;;;;;;;;;;4983854;28;20046;-83
2023/04/02 09:56:08;;;;;;;5.13;1.48;;;;;;;;;;5005179;28;20057;-87
2023/04/02 09:58:35;;;;;;;5.00;1.23;;;;;;;;;;4988826;28;20046;-85
2023/04/02 10:01:01;;;;;;;5.20;1.27;;;;;;;;;;4988402;28;20110;-86
2023/04/02 10:03:28;;;;;;;4.85;1.40;;;;;;;;;;5001508;28;20041;-87
2023/04/02 10:06:08;;;;;;;6.53;1.40;;;;;;;;;;5003625;28;20503;-86
2023/04/02 10:08:35;;;;;;;5.95;1.33;;;;;;;;;;4984370;28;20058;-86
2023/04/02 10:11:07;;;;;;;6.35;1.38;;;;;;;;;;4997556;28;20085;-86
2023/04/02 10:13:38;;;;;;;6.70;1.40;;;;;;;;;;5002843;28;20046;-86
2023/04/02 10:16:23;;;;;;;6.50;1.27;;;;;;;;;;5001918;28;20199;-88
2023/04/02 10:18:51;;;;;;;5.00;1.25;;;;;;;;;;4972965;28;20489;-85
2023/04/02 10:21:23;;;;;;;7.88;1.95;;;;;;;;;;5001258;28;20042;-87
2023/04/02 10:23:49;;;;;;;5.95;1.42;;;;;;;;;;5002578;28;20054;-86
2023/04/02 10:26:21;;;;;;;6.68;1.45;;;;;;;;;;5001982;28;20042;-86
2023/04/02 10:29:03;;;;;;;5.28;1.35;;;;;;;;;;5004110;28;20053;-85
2023/04/02 10:31:30;;;;;;;;;;;;;;;;;;4987716;28;20046;-87
2023/04/02 10:34:04;;;;;;;5.30;1.30;;;;;;;;;;4999258;28;19929;-87
2023/04/02 10:36:53;;;;;;;6.85;1.50;;;;;;;;;;4989146;28;20039;-86
2023/04/02 10:39:24;;;;;;;6.40;1.20;;;;;;;;;;4986380;28;20062;-87
2023/04/02 10:42:03;;;;;;;7.03;1.50;;;;;;;;;;4996669;28;20074;-86
2023/04/02 10:44:30;;;;;;;5.10;1.20;;;;;;;;;;4972248;28;20038;-86
2023/04/02 10:47:14;;;;;;;5.15;1.25;;;;;;;;;;4977287;28;20218;-86
2023/04/02 10:49:42;;;;;;;5.93;1.40;;;;;;;;;;4986919;28;20042;-86
2023/04/02 10:52:12;;;;;;;7.45;1.63;;;;;;;;;;4984751;28;20126;-86
2023/04/02 10:54:47;;;;;;;7.50;2.10;;;;;;;;;;4985527;28;20042;-87
2023/04/02 10:57:32;;;;;;;7.90;1.90;;;;;;;;;;5001247;28;20046;-86
2023/04/02 10:59:58;;;;;;;4.80;1.05;;;;;;;;;;4986773;28;20053;-87
2023/04/02 11:02:25;;;;;;;4.65;1.05;;;;;;;;;;5001339;28;20045;-88
2023/04/02 11:04:58;;;;;;;5.03;1.48;;;;;;;;;;5000725;28;20408;-86
2023/04/02 11:07:28;;;;;;;4.03;1.10;;;;;;;;;;5001800;28;20206;-87
2023/04/02 11:09:56;;;;;;;6.47;1.60;;;;;;;;;;4996036;28;20059;-86
2023/04/02 11:12:41;;;;;;;6.82;1.67;;;;;;;;;;4992328;28;20047;-87
2023/04/02 11:15:14;;;;;;;4.95;1.50;;;;;;;;;;4986901;28;20061;-86
2023/04/02 11:17:41;;;;;;;6.88;1.50;;;;;;;;;;4999567;28;20103;-86
2023/04/02 11:20:27;;;;;;;5.95;1.80;;;;;;;;;;5004599;28;20050;-87
2023/04/02 11:23:11;;;;;;;6.40;1.55;;;;;;;;;;4973863;28;20138;-87
2023/04/02 11:25:41;;;;;;;5.15;1.20;;;;;;;;;;5007490;28;20054;-86
2023/04/02 11:28:21;;;;;;;8.68;1.42;;;;;;;;;;4990941;28;20047;-85
2023/04/02 11:30:48;;;;;;;6.53;1.60;;;;;;;;;;5006843;28;20369;-86
2023/04/02 11:33:38;;;;;;;5.75;1.30;;;;;;;;;;4983353;28;20050;-86
2023/04/02 11:36:05;;;;;;;5.82;1.38;;;;;;;;;;4970214;28;20050;-86
2023/04/02 11:38:48;;;;;;;5.22;1.20;;;;;;;;;;4971661;28;20057;-86
2023/04/02 11:41:35;;;;;;;5.75;1.38;;;;;;;;;;4991289;28;20042;-86
2023/04/02 11:44:01;;;;;;;3.97;1.20;;;;;;;;;;4990007;28;20524;-86
2023/04/02 11:46:38;;;;;;;5.50;1.52;;;;;;;;;;4987270;28;20042;-86
2023/04/02 11:49:23;;;;;;;2.83;1.10;;;;;;;;;;5003255;28;20061;-86
2023/04/02 11:51:52;;;;;;;3.20;1.02;;;;;;;;;;5006944;28;20038;-85
2023/04/02 11:54:27;;;;;;;6.00;1.40;;;;;;;;;;5006471;28;20074;-86
2023/04/02 11:57:03;;;;;;;5.90;1.23;;;;;;;;;;5006787;28;20065;-85
2023/04/02 11:59:38;;;;;;;3.80;1.13;;;;;;;;;;5001755;28;20043;-85
2023/04/02 12:02:12;;;;;;;6.07;1.20;;;;;;;;;;4997581;28;20061;-87
2023/04/02 12:05:06;;;;;;;4.60;1.10;;;;;;;;;;4988813;28;20489;-86
2023/04/02 12:07:45;;;;;;;8.00;1.20;;;;;;;;;;4987407;28;20042;-86
2023/04/02 12:10:19;;;;;;;6.18;1.38;;;;;;;;;;5011570;28;20050;-86
2023/04/02 12:12:51;;;;;;;5.50;1.67;;;;;;;;;;5005423;28;20077;-86
2023/04/02 12:15:42;;;;;;;5.80;1.42;;;;;;;;;;5005676;28;20133;-86
2023/04/02 12:18:16;;;;;;;7.88;1.60;;;;;;;;;;4999117;28;20053;-86
2023/04/02 12:20:49;;;;;;;4.75;1.20;;;;;;;;;;5004568;28;20049;-85
2023/04/02 12:23:33;;;;;;;4.57;1.40;;;;;;;;;;4989377;28;20042;-84
2023/04/02 12:26:19;;;;;;;4.70;1.20;;;;;;;;;;4990134;28;20054;-86
2023/04/02 12:28:45;;;;;;;6.90;1.60;;;;;;;;;;4985718;28;20129;-85
2023/04/02 12:31:23;;;;;;;4.22;1.13;;;;;;;;;;5006983;28;20046;-85
2023/04/02 12:33:51;;;;;;;4.03;1.20;;;;;;;;;;4989014;28;20050;-84
2023/04/02 12:36:19;;;;;;;5.07;1.10;;;;;;;;;;5006927;28;20129;-85
2023/04/02 12:38:58;;;;;;;3.50;1.00;;;;;;;;;;5007368;28;20050;-86
2023/04/02 12:41:25;;;;;;;6.80;1.35;;;;;;;;;;4990342;28;20049;-84
2023/04/02 12:44:01;;;;;;;5.32;1.02;;;;;;;;;;5012311;28;20053;-83
2023/04/02 12:46:28;;;;;;;5.35;1.27;;;;;;;;;;4998429;28;20038;-83
2023/04/02 12:48:55;;;;;;;7.45;1.35;;;;;;;;;;4996036;28;20049;-83
2023/04/02 12:51:21;;;;;;;5.68;1.20;;;;;;;;;;5010341;28;20057;-86
2023/04/02 12:53:51;;;;;;;5.60;1.38;;;;;;;;;;4973453;28;20058;-83
2023/04/02 12:56:21;;;;;;;6.75;1.83;;;;;;;;;;5001247;28;20069;-84
2023/04/02 12:58:55;;;;;;;5.78;1.45;;;;;;;;;;4992086;28;20049;-84
2023/04/02 13:01:22;;;;;;;3.83;1.02;;;;;;;;;;4991571;28;20457;-85
2023/04/02 13:04:07;;;;;;;6.82;1.50;;;;;;;;;;5005385;28;20053;-84
2023/04/02 13:06:34;;;;;;;9.90;2.28;;;;;;;;;;5001099;28;20041;-85
2023/04/02 13:09:01;;;;;;;4.95;1.20;;;;;;;;;;5003091;28;20476;-85
2023/04/02 13:11:38;;;;;;;4.72;1.23;;;;;;;;;;5004557;28;20057;-85
2023/04/02 13:14:05;;;;;;;5.00;1.00;;;;;;;;;;5009009;28;20048;-84
2023/04/02 13:16:37;;;;;;;4.45;1.20;;;;;;;;;;5009645;28;20050;-83
2023/04/02 13:19:10;;;;;;;7.80;1.85;;;;;;;;;;4990383;28;20061;-84
2023/04/02 13:21:37;;;;;;;6.07;1.52;;;;;;;;;;5007085;28;20042;-84
2023/04/02 13:24:03;;;;;;;3.78;0.88;;;;;;;;;;5006449;28;20042;-85
2023/04/02 13:26:29;;;;;;;5.22;1.20;;;;;;;;;;5006431;28;20057;-84
2023/04/02 13:29:02;;;;;;;3.63;0.90;;;;;;;;;;5000741;28;20078;-84
2023/04/02 13:31:29;;;;;;;5.78;1.27;;;;;;;;;;4996268;28;20049;-83
2023/04/02 13:33:55;;;;;;;5.35;1.20;;;;;;;;;;4990083;28;20046;-83
2023/04/02 13:36:21;;;;;;;7.05;1.70;;;;;;;;;;4988525;28;20042;-83
2023/04/02 13:38:47;;;;;;;6.18;1.30;;;;;;;;;;5003975;28;20054;-83
2023/04/02 13:41:34;;;;;;;5.53;0.95;;;;;;;;;;5008042;28;20042;-88
2023/04/02 13:44:02;;;;;;;6.32;0.95;;;;;;;;;;5006381;28;20042;-83
2023/04/02 13:46:29;;;;;;;5.05;1.20;;;;;;;;;;5010001;28;20046;-84
2023/04/02 13:48:56;;;;;;;4.45;1.20;;;;;;;;;;5006037;28;20046;-84
2023/04/02 13:51:43;;;;;;;4.75;1.38;;;;;;;;;;5004089;28;20042;-84
2023/04/02 13:54:12;;;;;;;3.65;0.98;;;;;;;;;;5006970;28;20080;-85
2023/04/02 13:56:40;;;;;;;3.38;1.05;;;;;;;;;;5005725;28;20081;-84
2023/04/02 13:59:06;;;;;;;4.97;1.00;;;;;;;;;;5005194;28;20042;-85
2023/04/02 14:01:32;;;;;;;6.18;1.10;;;;;;;;;;4977327;28;20043;-84
2023/04/02 14:03:58;;;;;;;4.07;0.88;;;;;;;;;;4987090;28;20043;-84
2023/04/02 14:06:43;;;;;;;6.95;1.20;;;;;;;;;;5006610;28;20094;-84
2023/04/02 14:09:27;;;;;;;4.97;1.40;;;;;;;;;;4998524;28;20054;-83
2023/04/02 14:12:01;;;;;;;4.65;1.00;;;;;;;;;;4997553;28;20150;-84
2023/04/02 14:14:30;;;;;;;4.90;1.30;;;;;;;;;;5012265;28;20042;-84
2023/04/02 14:17:15;;;;;;;4.18;1.00;;;;;;;;;;5001092;28;20035;-83
2023/04/02 14:20:00;;;;;;;7.53;1.25;;;;;;;;;;4997453;28;20046;-82
2023/04/02 14:22:48;;;;;;;4.10;1.13;;;;;;;;;;5001414;28;20038;-85
2023/04/02 14:25:14;;;;;;;5.65;1.00;;;;;;;;;;4995520;28;20045;-81
2023/04/02 14:27:45;;;;;;;6.82;1.40;;;;;;;;;;5000241;28;20053;-84
2023/04/02 14:30:15;;;;;;;4.30;1.20;;;;;;;;;;5013870;28;20057;-84
2023/04/02 14:33:04;;;;;;;4.22;1.00;;;;;;;;;;5001521;28;20053;-85
2023/04/02 14:35:43;;;;;;;4.70;1.30;;;;;;;;;;4979828;28;20039;-82
2023/04/02 14:38:30;;;;;;;5.47;1.10;;;;;;;;;;5002303;28;20038;-83
2023/04/02 14:41:35;;;;;;;4.32;0.85;;;;;;;;;;5007180;28;20047;-83
2023/04/02 14:44:06;;;;;;;5.35;1.00;;;;;;;;;;4971477;28;20035;-83
2023/04/02 14:46:34;;;;;;;3.70;1.00;;;;;;;;;;4970359;28;20186;-83
2023/04/02 14:49:03;;;;;;;4.75;1.08;;;;;;;;;;4966363;28;20062;-83
2023/04/02 14:51:39;;;;;;;6.90;1.17;;;;;;;;;;4974037;28;20631;-84
2023/04/02 14:54:22;;;;;;;3.72;0.88;;;;;;;;;;4995224;28;20053;-84
2023/04/02 14:56:56;;;;;;;4.07;0.80;;;;;;;;;;4992136;28;20070;-85
2023/04/02 14:59:22;;;;;;;4.65;1.10;;;;;;;;;;5009510;28;20054;-85
2023/04/02 15:01:55;;;;;;;6.20;1.10;;;;;;;;;;5004608;28;20061;-85
2023/04/02 15:04:26;;;;;;;4.65;1.08;;;;;;;;;;5005344;28;20045;-85
2023/04/02 15:07:00;;;;;;;3.63;0.93;;;;;;;;;;5003789;28;20046;-84
2023/04/02 15:09:35;;;;;;;4.80;1.85;;;;;;;;;;4987446;28;20046;-84
2023/04/02 15:12:06;;;;;;;3.78;1.10;;;;;;;;;;4986585;28;20053;-83
2023/04/02 15:14:36;;;;;;;4.05;1.13;;;;;;;;;;5005254;28;20077;-85
2023/04/02 15:17:02;;;;;;;4.00;1.30;;;;;;;;;;5005173;28;20488;-85
2023/04/02 15:19:28;;;;;;;4.35;1.00;;;;;;;;;;4986835;28;20054;-85
2023/04/02 15:21:54;;;;;;;3.67;1.10;;;;;;;;;;4984728;28;20051;-84
2023/04/02 15:24:23;;;;;;;4.75;1.20;;;;;;;;;;5007771;28;20047;-84
2023/04/02 15:27:02;;;;;;;2.97;0.85;;;;;;;;;;5007676;28;20039;-84
2023/04/02 15:29:45;;;;;;;6.20;1.25;;;;;;;;;;5004216;28;20053;-85
2023/04/02 15:32:49;;;;;;;4.95;1.05;;;;;;;;;;5006255;28;20106;-84
2023/04/02 15:35:15;;;;;;;3.47;0.90;;;;;;;;;;4971229;28;20086;-85
2023/04/02 15:37:50;;;;;;;3.25;1.00;;;;;;;;;;4988713;28;20050;-84
2023/04/02 15:40:25;;;;;;;4.90;1.20;;;;;;;;;;5007670;28;20045;-85
2023/04/02 15:42:52;;;;;;;4.15;1.13;;;;;;;;;;5007822;28;20396;-84
2023/04/02 15:45:38;;;;;;;3.60;0.90;;;;;;;;;;4989258;28;20114;-83
2023/04/02 15:48:15;;;;;;;7.43;1.30;;;;;;;;;;5005355;28;20047;-84
2023/04/02 15:50:50;;;;;;;3.65;1.05;;;;;;;;;;5007612;28;20034;-84
2023/04/02 15:53:33;;;;;;;5.18;1.00;;;;;;;;;;4969131;28;20178;-83
2023/04/02 15:56:07;;;;;;;4.78;1.13;;;;;;;;;;5005062;28;20058;-83
2023/04/02 15:58:46;;;;;;;3.60;1.10;;;;;;;;;;5010985;28;20054;-85
2023/04/02 16:01:50;;;;;;;5.03;0.85;;;;;;;;;;5011249;28;20083;-84
2023/04/02 16:04:40;;;;;;;4.97;1.13;;;;;;;;;;4951682;29;20059;-87
2023/04/02 16:07:34;;;;;;;3.60;0.90;;;;;;;;;;4914511;29;20067;-85
2023/04/02 16:10:06;;;;;;;3.10;0.88;;;;;;;;;;4962497;29;20040;-84
2023/04/02 16:12:33;;;;;;;3.70;1.10;;;;;;;;;;4976034;29;20039;-82
2023/04/02 16:15:04;;;;;;;2.90;0.98;;;;;;;;;;4976710;29;20086;-83
2023/04/02 16:17:30;;;;;;;;;;;;;;;;;;4955091;29;20521;-83
2023/04/02 16:20:00;;;;;;;3.80;1.10;;;;;;;;;;4954746;29;19923;-83
2023/04/02 16:22:28;;;;;;;4.28;1.05;;;;;;;;;;4971662;29;20051;-83
2023/04/02 16:25:06;;;;;;;4.57;0.90;;;;;;;;;;4972631;29;20044;-83